createdAt,value
2018-09-06T00:00:11.466Z,0.00
2018-09-06T00:01:11.438Z,0.00
2018-09-06T00:02:11.411Z,0.00
2018-09-06T00:03:11.492Z,0.00
2018-09-06T00:04:11.361Z,0.00
2018-09-06T00:05:11.520Z,0.00
2018-09-06T00:06:11.320Z,0.00
2018-09-06T00:07:11.410Z,0.00
2018-09-06T00:08:11.278Z,0.00
2018-09-06T00:09:11.252Z,0.00
2018-09-06T00:10:11.331Z,0.00
2018-09-06T00:11:11.209Z,0.00
2018-09-06T00:12:11.243Z,0.00
2018-09-06T00:13:11.165Z,0.00
2018-09-06T00:14:11.284Z,0.00
2018-09-06T00:15:11.112Z,0.00
2018-09-06T00:16:11.169Z,0.00
2018-09-06T00:17:11.068Z,0.00
2018-09-06T00:18:11.191Z,0.00
2018-09-06T00:19:11.018Z,0.00
2018-09-06T00:20:11.101Z,0.00
2018-09-06T00:21:10.984Z,0.00
2018-09-06T00:22:11.116Z,0.00
2018-09-06T00:23:10.939Z,0.00
2018-09-06T00:24:11.019Z,0.00
2018-09-06T00:25:10.885Z,0.00
2018-09-06T00:26:10.955Z,0.00
2018-09-06T00:27:10.841Z,0.00
2018-09-06T00:28:10.952Z,0.00
2018-09-06T00:29:10.792Z,0.00
2018-09-06T00:30:10.870Z,0.00
2018-09-06T00:31:10.755Z,0.00
2018-09-06T00:32:10.881Z,0.00
2018-09-06T00:33:10.714Z,0.00
2018-09-06T00:34:10.794Z,0.00
2018-09-06T00:35:10.658Z,0.00
2018-09-06T00:36:10.807Z,0.00
2018-09-06T00:37:10.607Z,0.00
2018-09-06T00:38:10.711Z,0.00
2018-09-06T00:39:10.576Z,0.00
2018-09-06T00:40:10.731Z,0.00
2018-09-06T00:41:10.526Z,0.00
2018-09-06T00:42:10.638Z,0.00
2018-09-06T00:43:10.475Z,0.00
2018-09-06T00:44:10.543Z,0.00
2018-09-06T00:45:10.438Z,0.00
2018-09-06T00:46:10.560Z,0.00
2018-09-06T00:47:10.391Z,0.00
2018-09-06T00:48:10.471Z,0.00
2018-09-06T00:49:10.340Z,0.00
2018-09-06T00:50:10.485Z,0.00
2018-09-06T00:51:10.295Z,0.00
2018-09-06T00:52:10.397Z,0.00
2018-09-06T00:53:10.250Z,0.00
2018-09-06T00:54:10.310Z,0.00
2018-09-06T00:55:10.218Z,0.00
2018-09-06T00:56:10.319Z,0.00
2018-09-06T00:57:10.152Z,0.00
2018-09-06T00:58:14.883Z,0.00
2018-09-06T00:59:10.135Z,0.00
2018-09-06T01:00:10.086Z,0.00
2018-09-06T01:01:10.094Z,0.00
2018-09-06T01:02:10.100Z,0.00
2018-09-06T01:03:10.590Z,0.00
2018-09-06T01:04:09.993Z,0.00
2018-09-06T01:05:11.037Z,0.00
2018-09-06T01:06:09.963Z,0.00
2018-09-06T01:07:10.038Z,0.00
2018-09-06T01:08:09.906Z,0.00
2018-09-06T01:09:09.964Z,0.00
2018-09-06T01:10:09.858Z,0.00
2018-09-06T01:11:10.880Z,0.00
2018-09-06T01:12:09.820Z,0.00
2018-09-06T01:13:10.892Z,0.00
2018-09-06T01:14:09.771Z,0.00
2018-09-06T01:15:09.777Z,0.00
2018-09-06T01:16:09.734Z,0.00
2018-09-06T01:17:09.704Z,0.00
2018-09-06T01:18:09.799Z,0.00
2018-09-06T01:19:09.644Z,0.00
2018-09-06T01:20:09.715Z,0.00
2018-09-06T01:21:09.612Z,0.00
2018-09-06T01:22:09.624Z,0.00
2018-09-06T01:23:09.568Z,0.00
2018-09-06T01:24:09.634Z,0.00
2018-09-06T01:25:09.510Z,0.00
2018-09-06T01:26:09.528Z,0.00
2018-09-06T01:27:09.471Z,0.00
2018-09-06T01:28:09.564Z,0.00
2018-09-06T01:29:09.431Z,0.00
2018-09-06T01:30:09.473Z,0.00
2018-09-06T01:31:09.377Z,0.00
2018-09-06T01:32:09.491Z,0.00
2018-09-06T01:33:09.344Z,0.00
2018-09-06T01:34:10.420Z,0.00
2018-09-06T01:35:09.295Z,0.00
2018-09-06T01:36:09.323Z,0.00
2018-09-06T01:37:09.238Z,0.00
2018-09-06T01:38:09.337Z,0.00
2018-09-06T01:39:09.196Z,0.00
2018-09-06T01:40:09.244Z,0.00
2018-09-06T01:41:09.159Z,0.00
2018-09-06T01:42:09.256Z,0.00
2018-09-06T01:43:09.098Z,0.00
2018-09-06T01:44:09.174Z,0.00
2018-09-06T01:45:09.066Z,0.00
2018-09-06T01:46:09.192Z,0.00
2018-09-06T01:47:09.013Z,0.00
2018-09-06T01:48:09.090Z,0.00
2018-09-06T01:49:08.963Z,0.00
2018-09-06T01:50:08.946Z,0.00
2018-09-06T01:51:09.046Z,0.00
2018-09-06T01:52:54.985Z,0.00
2018-09-06T01:53:56.033Z,0.00
2018-09-06T01:54:54.915Z,0.00
2018-09-06T01:55:55.013Z,0.00
2018-09-06T01:56:54.866Z,0.00
2018-09-06T01:57:54.844Z,0.00
2018-09-06T01:58:54.936Z,0.00
2018-09-06T01:59:54.796Z,0.00
2018-09-06T02:00:54.867Z,0.00
2018-09-06T02:01:54.750Z,0.00
2018-09-06T02:02:54.857Z,0.00
2018-09-06T02:03:54.712Z,0.00
2018-09-06T02:04:54.772Z,0.00
2018-09-06T02:05:54.651Z,0.00
2018-09-06T02:06:55.713Z,0.00
2018-09-06T02:07:54.604Z,0.00
2018-09-06T02:08:54.707Z,0.00
2018-09-06T02:09:54.573Z,0.00
2018-09-06T02:10:54.612Z,0.00
2018-09-06T02:11:54.522Z,0.00
2018-09-06T02:12:56.572Z,0.00
2018-09-06T02:13:54.469Z,0.00
2018-09-06T02:14:54.525Z,0.00
2018-09-06T02:15:54.413Z,0.00
2018-09-06T02:16:54.538Z,0.00
2018-09-06T02:17:54.379Z,0.00
2018-09-06T02:18:56.516Z,0.00
2018-09-06T02:19:54.319Z,0.00
2018-09-06T02:20:55.387Z,0.00
2018-09-06T02:21:54.276Z,0.00
2018-09-06T02:22:54.380Z,0.00
2018-09-06T02:23:54.252Z,0.00
2018-09-06T02:24:54.292Z,0.00
2018-09-06T02:25:54.185Z,0.00
2018-09-06T02:26:55.224Z,0.00
2018-09-06T02:27:54.139Z,0.00
2018-09-06T02:28:54.214Z,0.00
2018-09-06T02:29:54.086Z,0.00
2018-09-06T02:30:54.087Z,0.00
2018-09-06T02:31:54.129Z,0.00
2018-09-06T02:32:54.018Z,0.00
2018-09-06T02:33:54.139Z,0.00
2018-09-06T02:34:53.989Z,0.00
2018-09-06T02:35:54.055Z,0.00
2018-09-06T02:36:53.933Z,0.00
2018-09-06T02:37:53.964Z,0.00
2018-09-06T02:38:53.873Z,0.00
2018-09-06T02:40:40.787Z,0.00
2018-09-06T02:41:40.721Z,0.00
2018-09-06T02:42:41.922Z,0.00
2018-09-06T02:43:40.672Z,0.00
2018-09-06T02:44:41.724Z,0.00
2018-09-06T02:45:40.618Z,0.00
2018-09-06T02:46:40.684Z,0.00
2018-09-06T02:47:40.579Z,0.00
2018-09-06T02:48:51.544Z,0.00
2018-09-06T02:49:40.528Z,0.00
2018-09-06T02:50:51.559Z,0.00
2018-09-06T02:51:40.485Z,0.00
2018-09-06T02:52:41.561Z,0.00
2018-09-06T02:53:40.525Z,0.00
2018-09-06T02:54:46.060Z,0.00
2018-09-06T02:55:40.389Z,0.00
2018-09-06T02:56:42.482Z,0.00
2018-09-06T02:57:40.339Z,0.00
2018-09-06T02:58:45.064Z,0.00
2018-09-06T02:59:40.298Z,0.00
2018-09-06T03:00:45.068Z,0.00
2018-09-06T03:01:40.261Z,0.00
2018-09-06T03:02:46.007Z,0.00
2018-09-06T03:03:40.201Z,0.00
2018-09-06T03:04:41.324Z,0.00
2018-09-06T03:05:40.157Z,0.00
2018-09-06T03:06:41.224Z,0.00
2018-09-06T03:07:40.107Z,0.00
2018-09-06T03:08:51.070Z,0.00
2018-09-06T03:09:40.059Z,0.00
2018-09-06T03:10:41.152Z,0.00
2018-09-06T03:11:40.013Z,0.00
2018-09-06T03:12:41.057Z,0.00
2018-09-06T03:13:39.977Z,0.00
2018-09-06T03:14:40.055Z,0.00
2018-09-06T03:15:39.919Z,0.00
2018-09-06T03:16:42.010Z,0.00
2018-09-06T03:17:39.879Z,0.00
2018-09-06T03:18:39.857Z,0.00
2018-09-06T03:19:40.907Z,0.00
2018-09-06T03:20:39.808Z,0.00
2018-09-06T03:21:50.609Z,0.00
2018-09-06T03:22:39.761Z,0.00
2018-09-06T03:23:39.867Z,0.00
2018-09-06T03:24:39.709Z,0.00
2018-09-06T03:25:40.802Z,0.00
2018-09-06T03:26:39.667Z,0.00
2018-09-06T03:27:39.795Z,0.00
2018-09-06T03:28:39.626Z,0.00
2018-09-06T03:29:40.730Z,0.00
2018-09-06T03:30:39.567Z,0.00
2018-09-06T03:31:39.714Z,0.00
2018-09-06T03:32:39.550Z,0.00
2018-09-06T03:33:39.627Z,0.00
2018-09-06T03:34:39.487Z,0.00
2018-09-06T03:35:44.190Z,0.00
2018-09-06T03:36:39.436Z,0.00
2018-09-06T03:37:39.551Z,0.00
2018-09-06T03:38:39.381Z,0.00
2018-09-06T03:39:41.513Z,0.00
2018-09-06T03:40:39.338Z,0.00
2018-09-06T03:41:51.162Z,0.00
2018-09-06T03:42:39.292Z,0.00
2018-09-06T03:43:39.298Z,0.00
2018-09-06T03:44:39.247Z,0.00
2018-09-06T03:45:51.183Z,0.00
2018-09-06T03:46:39.215Z,0.00
2018-09-06T03:47:39.315Z,0.00
2018-09-06T03:48:39.177Z,0.00
2018-09-06T03:49:39.334Z,0.00
2018-09-06T03:50:39.129Z,0.00
2018-09-06T03:51:41.297Z,0.00
2018-09-06T03:52:39.063Z,0.00
2018-09-06T03:53:46.121Z,0.00
2018-09-06T03:54:39.024Z,0.00
2018-09-06T03:55:44.192Z,0.00
2018-09-06T03:56:38.969Z,0.00
2018-09-06T03:57:39.093Z,0.00
2018-09-06T03:58:38.934Z,0.00
2018-09-06T03:59:38.910Z,0.00
2018-09-06T04:00:38.890Z,0.00
2018-09-06T04:01:39.003Z,0.00
2018-09-06T04:02:38.829Z,0.00
2018-09-06T04:03:39.935Z,0.00
2018-09-06T04:04:38.809Z,0.00
2018-09-06T04:05:39.952Z,0.00
2018-09-06T04:06:38.752Z,0.00
2018-09-06T04:07:39.864Z,0.00
2018-09-06T04:08:38.696Z,0.00
2018-09-06T04:09:49.705Z,0.00
2018-09-06T04:10:38.664Z,0.00
2018-09-06T04:11:51.665Z,0.00
2018-09-06T04:12:38.624Z,0.00
2018-09-06T04:13:49.641Z,0.00
2018-09-06T04:14:38.550Z,0.00
2018-09-06T04:15:38.695Z,0.00
2018-09-06T04:16:38.538Z,0.00
2018-09-06T04:17:38.706Z,0.00
2018-09-06T04:18:38.520Z,0.00
2018-09-06T04:19:51.200Z,0.00
2018-09-06T04:20:38.416Z,0.00
2018-09-06T04:21:39.547Z,0.00
2018-09-06T04:22:38.385Z,0.00
2018-09-06T04:23:49.083Z,0.00
2018-09-06T04:24:38.330Z,0.00
2018-09-06T04:25:39.378Z,0.00
2018-09-06T04:26:38.292Z,0.00
2018-09-06T04:27:39.384Z,0.00
2018-09-06T04:28:38.234Z,0.00
2018-09-06T04:29:38.387Z,0.00
2018-09-06T04:30:38.187Z,0.00
2018-09-06T04:31:38.296Z,0.00
2018-09-06T04:32:38.139Z,0.00
2018-09-06T04:33:43.121Z,0.00
2018-09-06T04:34:38.109Z,0.00
2018-09-06T04:35:39.136Z,0.00
2018-09-06T04:36:38.055Z,0.00
2018-09-06T04:37:39.151Z,0.00
2018-09-06T04:38:38.013Z,0.00
2018-09-06T04:39:39.063Z,0.00
2018-09-06T04:40:37.960Z,0.00
2018-09-06T04:41:37.946Z,5.63
2018-09-06T04:42:37.953Z,5.63
2018-09-06T04:43:37.933Z,5.63
2018-09-06T04:44:43.596Z,5.63
2018-09-06T04:45:37.843Z,5.63
2018-09-06T04:46:38.906Z,5.63
2018-09-06T04:47:37.792Z,11.25
2018-09-06T04:48:38.812Z,11.25
2018-09-06T04:49:37.744Z,11.25
2018-09-06T04:50:39.844Z,11.25
2018-09-06T04:51:37.702Z,11.25
2018-09-06T04:52:38.742Z,11.25
2018-09-06T04:53:37.653Z,16.88
2018-09-06T04:54:39.679Z,16.88
2018-09-06T04:55:37.612Z,16.88
2018-09-06T04:56:39.689Z,16.88
2018-09-06T04:57:37.563Z,16.88
2018-09-06T04:58:39.665Z,22.50
2018-09-06T04:59:37.514Z,22.50
2018-09-06T05:00:37.597Z,22.50
2018-09-06T05:01:37.468Z,22.50
2018-09-06T05:02:37.576Z,22.50
2018-09-06T05:03:37.439Z,22.50
2018-09-06T05:04:37.483Z,28.13
2018-09-06T05:05:37.383Z,28.13
2018-09-06T05:06:39.453Z,28.13
2018-09-06T05:07:37.335Z,28.13
2018-09-06T05:08:44.071Z,28.13
2018-09-06T05:09:37.283Z,28.13
2018-09-06T05:10:37.329Z,33.75
2018-09-06T05:11:37.241Z,33.75
2018-09-06T05:12:37.336Z,33.75
2018-09-06T05:13:37.201Z,33.75
2018-09-06T05:14:48.107Z,33.75
2018-09-06T05:15:37.144Z,33.75
2018-09-06T05:16:37.277Z,33.75
2018-09-06T05:17:37.109Z,33.75
2018-09-06T05:18:39.127Z,39.38
2018-09-06T05:19:37.046Z,39.38
2018-09-06T05:20:38.111Z,39.38
2018-09-06T05:21:37.001Z,39.38
2018-09-06T05:22:37.100Z,39.38
2018-09-06T05:23:36.951Z,45.00
2018-09-06T05:24:41.628Z,45.00
2018-09-06T05:25:36.904Z,45.00
2018-09-06T05:26:42.574Z,39.38
2018-09-06T05:27:36.869Z,39.38
2018-09-06T05:28:36.938Z,39.38
2018-09-06T05:32:34.517Z,33.75
2018-09-06T05:33:34.514Z,33.75
2018-09-06T05:36:17.160Z,28.13
2018-09-06T05:37:17.092Z,28.13
2018-09-06T05:38:18.160Z,28.13
2018-09-06T05:39:17.068Z,33.75
2018-09-06T05:40:17.050Z,33.75
2018-09-06T05:41:16.975Z,33.75
2018-09-06T05:42:16.958Z,33.75
2018-09-06T05:43:17.077Z,33.75
2018-09-06T05:44:17.209Z,33.75
2018-09-06T05:45:16.876Z,39.38
2018-09-06T05:46:16.858Z,39.38
2018-09-06T05:47:16.875Z,45.00
2018-09-06T05:48:16.892Z,45.00
2018-09-06T05:49:16.781Z,45.00
2018-09-06T05:50:16.767Z,45.00
2018-09-06T05:51:16.735Z,45.00
2018-09-06T05:52:16.821Z,45.00
2018-09-06T05:53:16.706Z,45.00
2018-09-06T05:54:16.748Z,50.63
2018-09-06T05:55:16.648Z,50.63
2018-09-06T05:56:16.638Z,56.25
2018-09-06T05:57:16.595Z,61.88
2018-09-06T05:58:16.656Z,67.50
2018-09-06T05:59:16.552Z,73.13
2018-09-06T06:00:16.567Z,78.75
2018-09-06T06:01:16.509Z,84.38
2018-09-06T06:02:16.574Z,90.00
2018-09-06T06:03:16.462Z,95.63
2018-09-06T06:04:16.434Z,95.63
2018-09-06T06:05:16.422Z,101.25
2018-09-06T06:06:16.523Z,95.63
2018-09-06T06:07:16.373Z,101.25
2018-09-06T06:08:17.444Z,101.25
2018-09-06T06:09:16.323Z,112.50
2018-09-06T06:10:16.337Z,112.50
2018-09-06T06:11:16.277Z,118.13
2018-09-06T06:12:16.342Z,129.38
2018-09-06T06:13:16.237Z,140.63
2018-09-06T06:14:16.251Z,146.25
2018-09-06T06:15:16.169Z,151.88
2018-09-06T06:16:16.261Z,157.50
2018-09-06T06:17:16.130Z,163.13
2018-09-06T06:18:16.095Z,168.75
2018-09-06T06:19:16.198Z,168.75
2018-09-06T06:20:16.069Z,168.75
2018-09-06T06:21:16.095Z,168.75
2018-09-06T06:22:16.042Z,168.75
2018-09-06T06:23:16.019Z,168.75
2018-09-06T06:24:15.967Z,174.38
2018-09-06T06:25:16.032Z,180.00
2018-09-06T06:26:15.912Z,185.63
2018-09-06T06:27:15.939Z,191.25
2018-09-06T06:28:15.877Z,202.50
2018-09-06T06:29:15.946Z,202.50
2018-09-06T06:30:15.818Z,208.13
2018-09-06T06:31:15.795Z,213.75
2018-09-06T06:32:15.794Z,213.75
2018-09-06T06:33:15.763Z,219.38
2018-09-06T06:34:15.726Z,225.00
2018-09-06T06:35:15.794Z,230.63
2018-09-06T06:36:15.677Z,241.88
2018-09-06T06:37:15.704Z,241.88
2018-09-06T06:38:15.628Z,247.50
2018-09-06T06:39:15.716Z,247.50
2018-09-06T06:40:15.576Z,253.13
2018-09-06T06:41:16.683Z,253.13
2018-09-06T06:42:15.549Z,253.13
2018-09-06T06:43:15.522Z,247.50
2018-09-06T06:44:15.486Z,247.50
2018-09-06T06:45:15.467Z,241.88
2018-09-06T06:46:15.451Z,241.88
2018-09-06T06:47:15.459Z,241.88
2018-09-06T06:48:15.425Z,247.50
2018-09-06T06:49:15.472Z,247.50
2018-09-06T06:50:15.355Z,253.13
2018-09-06T06:51:15.386Z,253.13
2018-09-06T06:52:15.304Z,253.13
2018-09-06T06:53:15.296Z,253.13
2018-09-06T06:54:15.252Z,253.13
2018-09-06T06:56:02.090Z,241.88
2018-09-06T06:57:02.123Z,241.88
2018-09-06T06:58:02.019Z,241.88
2018-09-06T06:59:02.015Z,236.25
2018-09-06T07:00:01.971Z,225.00
2018-09-06T07:01:01.961Z,219.38
2018-09-06T07:02:02.045Z,219.38
2018-09-06T07:03:01.915Z,230.63
2018-09-06T07:04:01.993Z,219.38
2018-09-06T07:05:01.854Z,213.75
2018-09-06T07:06:01.865Z,208.13
2018-09-06T07:07:01.908Z,213.75
2018-09-06T07:08:02.897Z,213.75
2018-09-06T07:09:01.795Z,219.38
2018-09-06T07:10:01.792Z,213.75
2018-09-06T07:11:01.727Z,208.13
2018-09-06T07:12:01.802Z,191.25
2018-09-06T07:13:01.668Z,174.38
2018-09-06T07:14:01.649Z,168.75
2018-09-06T07:15:01.636Z,157.50
2018-09-06T07:16:01.633Z,163.13
2018-09-06T07:17:01.647Z,157.50
2018-09-06T07:18:01.639Z,151.88
2018-09-06T07:19:01.537Z,151.88
2018-09-06T07:20:01.559Z,140.63
2018-09-06T07:21:01.492Z,140.63
2018-09-06T07:22:01.559Z,135.00
2018-09-06T07:23:01.510Z,123.75
2018-09-06T07:24:01.489Z,118.13
2018-09-06T07:25:01.452Z,112.50
2018-09-06T07:26:01.387Z,106.88
2018-09-06T07:27:01.489Z,106.88
2018-09-06T07:28:01.338Z,101.25
2018-09-06T07:29:01.403Z,95.63
2018-09-06T07:30:01.314Z,95.63
2018-09-06T07:31:01.318Z,95.63
2018-09-06T07:32:01.244Z,95.63
2018-09-06T07:33:01.235Z,101.25
2018-09-06T07:34:01.194Z,101.25
2018-09-06T07:35:01.253Z,95.63
2018-09-06T07:36:01.146Z,95.63
2018-09-06T07:37:01.168Z,101.25
2018-09-06T07:38:01.117Z,95.63
2018-09-06T07:39:02.194Z,95.63
2018-09-06T07:40:01.050Z,95.63
2018-09-06T07:41:01.035Z,95.63
2018-09-06T07:42:01.039Z,101.25
2018-09-06T07:43:01.094Z,95.63
2018-09-06T07:44:00.969Z,95.63
2018-09-06T07:45:00.961Z,95.63
2018-09-06T07:46:00.921Z,95.63
2018-09-06T07:47:00.903Z,95.63
2018-09-06T07:48:00.935Z,95.63
2018-09-06T07:49:00.857Z,101.25
2018-09-06T07:50:00.849Z,106.88
2018-09-06T07:51:00.943Z,106.88
2018-09-06T07:52:00.787Z,112.50
2018-09-06T07:53:00.782Z,112.50
2018-09-06T07:54:00.816Z,112.50
2018-09-06T07:55:01.820Z,112.50
2018-09-06T07:56:00.684Z,118.13
2018-09-06T07:57:02.412Z,112.50
2018-09-06T07:58:00.716Z,112.50
2018-09-06T07:59:00.656Z,112.50
2018-09-06T08:00:00.618Z,112.50
2018-09-06T08:01:00.617Z,112.50
2018-09-06T08:02:00.636Z,118.13
2018-09-06T08:03:00.528Z,112.50
2018-09-06T08:04:00.552Z,112.50
2018-09-06T08:05:00.485Z,118.13
2018-09-06T08:06:00.487Z,118.13
2018-09-06T08:07:00.441Z,112.50
2018-09-06T08:08:00.419Z,118.13
2018-09-06T08:09:00.403Z,112.50
2018-09-06T08:10:46.875Z,112.50
2018-09-06T08:11:46.995Z,112.50
2018-09-06T08:12:46.784Z,118.13
2018-09-06T08:13:46.760Z,118.13
2018-09-06T08:14:46.741Z,118.13
2018-09-06T08:15:46.722Z,123.75
2018-09-06T08:16:46.704Z,123.75
2018-09-06T08:17:46.700Z,123.75
2018-09-06T08:18:46.655Z,118.13
2018-09-06T08:19:46.628Z,112.50
2018-09-06T08:20:46.603Z,112.50
2018-09-06T08:21:46.581Z,112.50
2018-09-06T08:22:46.571Z,106.88
2018-09-06T08:23:46.567Z,106.88
2018-09-06T08:24:46.557Z,101.25
2018-09-06T08:25:46.485Z,95.63
2018-09-06T08:26:46.455Z,95.63
2018-09-06T08:27:46.474Z,95.63
2018-09-06T08:28:46.417Z,106.88
2018-09-06T08:30:32.936Z,118.13
2018-09-06T08:31:32.819Z,123.75
2018-09-06T08:32:32.809Z,123.75
2018-09-06T08:33:32.767Z,135.00
2018-09-06T08:34:32.749Z,151.88
2018-09-06T08:35:32.727Z,163.13
2018-09-06T08:36:32.708Z,174.38
2018-09-06T08:37:32.724Z,180.00
2018-09-06T08:38:32.670Z,180.00
2018-09-06T08:39:32.744Z,174.38
2018-09-06T08:40:32.608Z,174.38
2018-09-06T08:41:32.657Z,168.75
2018-09-06T08:42:32.565Z,163.13
2018-09-06T08:43:32.556Z,163.13
2018-09-06T08:44:32.512Z,163.13
2018-09-06T08:45:32.578Z,163.13
2018-09-06T08:46:32.468Z,168.75
2018-09-06T08:47:32.527Z,168.75
2018-09-06T08:48:32.518Z,168.75
2018-09-06T08:49:32.709Z,168.75
2018-09-06T08:50:32.373Z,174.38
2018-09-06T08:51:32.372Z,180.00
2018-09-06T08:52:32.404Z,185.63
2018-09-06T08:53:32.311Z,180.00
2018-09-06T08:54:32.280Z,180.00
2018-09-06T08:55:32.285Z,174.38
2018-09-06T08:56:32.242Z,174.38
2018-09-06T08:57:32.213Z,174.38
2018-09-06T08:58:32.247Z,168.75
2018-09-06T08:59:32.169Z,157.50
2018-09-06T09:00:32.147Z,146.25
2018-09-06T09:01:32.122Z,135.00
2018-09-06T09:02:32.163Z,129.38
2018-09-06T09:03:32.078Z,123.75
2018-09-06T09:04:32.104Z,123.75
2018-09-06T09:05:32.067Z,123.75
2018-09-06T09:06:32.013Z,118.13
2018-09-06T09:07:32.022Z,118.13
2018-09-06T09:08:32.031Z,112.50
2018-09-06T09:09:31.965Z,112.50
2018-09-06T09:10:31.927Z,106.88
2018-09-06T09:11:31.943Z,106.88
2018-09-06T09:12:31.914Z,106.88
2018-09-06T09:13:31.932Z,101.25
2018-09-06T09:14:31.842Z,101.25
2018-09-06T09:15:31.821Z,95.63
2018-09-06T09:16:31.804Z,95.63
2018-09-06T09:17:31.822Z,95.63
2018-09-06T09:18:31.737Z,90.00
2018-09-06T09:19:31.722Z,95.63
2018-09-06T09:20:31.790Z,90.00
2018-09-06T09:21:31.708Z,90.00
2018-09-06T09:22:31.642Z,95.63
2018-09-06T09:23:31.715Z,90.00
2018-09-06T09:24:31.605Z,90.00
2018-09-06T09:25:31.616Z,84.38
2018-09-06T09:26:32.623Z,78.75
2018-09-06T09:27:31.525Z,78.75
2018-09-06T09:28:43.099Z,78.75
2018-09-06T09:29:31.468Z,67.50
2018-09-06T09:30:32.694Z,73.13
2018-09-06T09:31:36.676Z,73.13
2018-09-06T09:32:36.665Z,67.50
2018-09-06T09:33:36.568Z,67.50
2018-09-06T09:34:36.676Z,67.50
2018-09-06T09:35:36.532Z,67.50
2018-09-06T09:36:36.581Z,67.50
2018-09-06T09:37:36.479Z,61.88
2018-09-06T09:38:36.509Z,61.88
2018-09-06T09:39:36.423Z,67.50
2018-09-06T09:40:36.608Z,67.50
2018-09-06T09:41:36.384Z,73.13
2018-09-06T09:42:36.404Z,73.13
2018-09-06T09:43:36.372Z,78.75
2018-09-06T09:44:38.394Z,84.38
2018-09-06T09:45:36.504Z,90.00
2018-09-06T09:48:23.529Z,106.88
2018-09-06T09:49:23.465Z,112.50
2018-09-06T09:51:18.313Z,112.50
2018-09-06T09:53:12.420Z,118.13
2018-09-06T09:54:12.322Z,118.13
2018-09-06T09:55:12.375Z,112.50
2018-09-06T09:56:12.307Z,112.50
2018-09-06T09:57:12.282Z,106.88
2018-09-06T09:58:12.331Z,106.88
2018-09-06T09:59:12.176Z,106.88
2018-09-06T10:00:12.159Z,106.88
2018-09-06T10:01:12.147Z,106.88
2018-09-06T10:02:59.321Z,106.88
2018-09-06T10:03:59.257Z,112.50
2018-09-06T10:04:59.389Z,118.13
2018-09-06T10:05:59.184Z,123.75
2018-09-06T10:06:59.243Z,135.00
2018-09-06T10:07:59.259Z,140.63
2018-09-06T10:08:59.125Z,140.63
2018-09-06T10:10:46.093Z,135.00
2018-09-06T10:11:46.107Z,135.00
2018-09-06T10:12:45.969Z,129.38
2018-09-06T10:13:46.058Z,123.75
2018-09-06T10:14:45.929Z,123.75
2018-09-06T10:15:45.985Z,118.13
2018-09-06T10:16:45.949Z,112.50
2018-09-06T10:17:45.880Z,112.50
2018-09-06T10:18:45.871Z,112.50
2018-09-06T10:19:45.897Z,112.50
2018-09-06T10:20:45.783Z,118.13
2018-09-06T10:21:45.892Z,118.13
2018-09-06T10:22:45.731Z,118.13
2018-09-06T10:23:46.847Z,118.13
2018-09-06T10:24:45.693Z,118.13
2018-09-06T10:25:45.651Z,118.13
2018-09-06T10:26:48.049Z,112.50
2018-09-06T10:27:45.594Z,118.13
2018-09-06T10:28:45.655Z,118.13
2018-09-06T10:29:45.570Z,129.38
2018-09-06T10:30:45.578Z,135.00
2018-09-06T10:32:35.034Z,135.00
2018-09-06T10:33:34.892Z,135.00
2018-09-06T10:34:34.983Z,129.38
2018-09-06T10:35:35.215Z,129.38
2018-09-06T10:37:24.550Z,123.75
2018-09-06T10:38:24.447Z,118.13
2018-09-06T10:39:24.438Z,112.50
2018-09-06T10:40:24.492Z,106.88
2018-09-06T10:41:24.300Z,101.25
2018-09-06T10:42:24.405Z,101.25
2018-09-06T10:44:15.324Z,101.25
2018-09-06T10:45:15.123Z,101.25
2018-09-06T10:46:15.065Z,101.25
2018-09-06T10:47:15.071Z,101.25
2018-09-06T10:48:15.333Z,101.25
2018-09-06T10:49:15.124Z,101.25
2018-09-06T10:50:14.972Z,101.25
2018-09-06T10:51:14.936Z,95.63
2018-09-06T10:52:06.250Z,95.63
2018-09-06T10:53:06.047Z,90.00
2018-09-06T10:54:06.014Z,84.38
2018-09-06T10:55:06.059Z,84.38
2018-09-06T10:56:05.974Z,84.38
2018-09-06T10:58:14.644Z,78.75
2018-09-06T10:59:14.444Z,78.75
2018-09-06T11:00:15.569Z,78.75
2018-09-06T11:01:14.272Z,73.13
2018-09-06T11:02:14.245Z,78.75
2018-09-06T11:03:14.206Z,73.13
2018-09-06T11:04:26.644Z,73.13
2018-09-06T11:05:26.566Z,78.75
2018-09-06T11:06:26.608Z,78.75
2018-09-06T11:07:27.041Z,78.75
2018-09-06T11:08:27.501Z,84.38
2018-09-06T11:09:26.382Z,84.38
2018-09-06T11:10:26.494Z,90.00
2018-09-06T11:12:13.239Z,90.00
2018-09-06T11:13:13.128Z,90.00
2018-09-06T11:14:13.124Z,90.00
2018-09-06T11:15:13.090Z,95.63
2018-09-06T11:16:13.157Z,95.63
2018-09-06T11:17:13.071Z,95.63
2018-09-06T11:18:13.057Z,90.00
2018-09-06T11:19:13.046Z,101.25
2018-09-06T11:20:20.006Z,95.63
2018-09-06T11:21:13.065Z,106.88
2018-09-06T11:25:38.701Z,123.75
2018-09-06T11:26:40.904Z,129.38
2018-09-06T11:27:38.762Z,135.00
2018-09-06T11:28:38.674Z,135.00
2018-09-06T11:29:38.584Z,135.00
2018-09-06T11:30:40.945Z,129.38
2018-09-06T11:32:47.367Z,129.38
2018-09-06T11:33:53.376Z,118.13
2018-09-06T11:34:47.171Z,123.75
2018-09-06T11:35:47.201Z,129.38
2018-09-06T11:36:47.134Z,118.13
2018-09-06T11:37:52.042Z,118.13
2018-09-06T11:38:47.096Z,118.13
2018-09-06T11:39:48.094Z,118.13
2018-09-06T11:40:47.033Z,106.88
2018-09-06T11:41:46.981Z,112.50
2018-09-06T11:44:18.425Z,106.88
2018-09-06T11:45:18.470Z,106.88
2018-09-06T11:46:25.125Z,106.88
2018-09-06T11:47:18.400Z,106.88
2018-09-06T11:48:18.326Z,106.88
2018-09-06T11:49:19.598Z,101.25
2018-09-06T11:50:18.258Z,101.25
2018-09-06T11:51:18.211Z,106.88
2018-09-06T11:52:24.133Z,112.50
2018-09-06T11:53:18.183Z,112.50
2018-09-06T11:55:21.410Z,112.50
2018-09-06T11:56:21.201Z,123.75
2018-09-06T11:57:22.154Z,118.13
2018-09-06T11:58:21.091Z,118.13
2018-09-06T11:59:31.523Z,129.38
2018-09-06T12:01:06.901Z,135.00
2018-09-06T12:02:06.876Z,140.63
2018-09-06T12:03:06.771Z,135.00
2018-09-06T12:04:06.754Z,129.38
2018-09-06T12:05:06.729Z,146.25
2018-09-06T12:06:06.740Z,140.63
2018-09-06T12:07:06.686Z,135.00
2018-09-06T12:08:06.701Z,151.88
2018-09-06T12:09:06.727Z,157.50
2018-09-06T12:10:06.831Z,157.50
2018-09-06T12:11:06.584Z,157.50
2018-09-06T12:12:53.655Z,163.13
2018-09-06T12:13:53.595Z,168.75
2018-09-06T12:14:53.440Z,168.75
2018-09-06T12:15:53.444Z,174.38
2018-09-06T12:16:53.404Z,174.38
2018-09-06T12:17:53.473Z,174.38
2018-09-06T12:18:53.342Z,174.38
2018-09-06T12:19:53.366Z,168.75
2018-09-06T12:20:53.291Z,168.75
2018-09-06T12:22:41.714Z,174.38
2018-09-06T12:23:41.653Z,174.38
2018-09-06T12:25:35.531Z,174.38
2018-09-06T12:26:35.331Z,174.38
2018-09-06T12:27:35.316Z,174.38
2018-09-06T12:28:35.306Z,174.38
2018-09-06T12:29:35.257Z,168.75
2018-09-06T12:30:35.407Z,174.38
2018-09-06T12:31:35.240Z,191.25
2018-09-06T12:32:35.263Z,191.25
2018-09-06T12:33:35.165Z,196.88
2018-09-06T12:34:35.151Z,208.13
2018-09-06T12:36:21.650Z,230.63
2018-09-06T12:37:21.587Z,241.88
2018-09-06T12:38:21.553Z,236.25
2018-09-06T12:39:21.554Z,230.63
2018-09-06T12:40:21.565Z,208.13
2018-09-06T12:41:21.475Z,202.50
2018-09-06T12:42:21.463Z,191.25
2018-09-06T12:43:21.451Z,185.63
2018-09-06T12:44:21.408Z,185.63
2018-09-06T12:45:21.403Z,191.25
2018-09-06T12:47:09.851Z,185.63
2018-09-06T12:48:09.805Z,180.00
2018-09-06T12:49:09.744Z,174.38
2018-09-06T12:50:09.779Z,174.38
2018-09-06T12:51:09.725Z,180.00
2018-09-06T12:52:09.731Z,185.63
2018-09-06T12:53:09.644Z,191.25
2018-09-06T12:55:08.759Z,196.88
2018-09-06T12:56:08.741Z,196.88
2018-09-06T12:57:08.684Z,196.88
2018-09-06T12:58:08.659Z,196.88
2018-09-06T12:59:08.621Z,196.88
2018-09-06T13:00:08.597Z,191.25
2018-09-06T13:01:08.617Z,191.25
2018-09-06T13:02:08.567Z,185.63
2018-09-06T13:03:08.539Z,185.63
2018-09-06T13:04:09.555Z,185.63
2018-09-06T13:05:08.491Z,185.63
2018-09-06T13:06:08.551Z,185.63
2018-09-06T13:07:08.458Z,191.25
2018-09-06T13:09:00.912Z,202.50
2018-09-06T13:10:00.819Z,208.13
2018-09-06T13:11:00.805Z,213.75
2018-09-06T13:12:00.794Z,213.75
2018-09-06T13:13:00.918Z,213.75
2018-09-06T13:14:00.735Z,219.38
2018-09-06T13:15:00.875Z,230.63
2018-09-06T13:16:00.688Z,241.88
2018-09-06T13:17:00.709Z,253.13
2018-09-06T13:18:00.630Z,281.25
2018-09-06T13:19:00.624Z,303.75
2018-09-06T13:20:00.592Z,309.38
2018-09-06T13:21:50.234Z,303.75
2018-09-06T13:22:50.170Z,298.13
2018-09-06T13:23:50.149Z,292.50